CA-0562 weather

White Cloud Island
Ontario, Canada

Public forecast

Using degrees Celsius for public forecast. Weather courtesy of forecast.io.

Closest aviation weather report (METAR) to White Cloud Island

Closest report is Wiarton Airport, 7.8 nm (14.4 km) SW. Retrieved 2019/11/19 09:00 UTC (6 minutes ago):

CYVV 190900Z 18004KT 15SM OVC050 01/00 A2974 RMK SC8 SLP081

Closest aviation forecast (TAF) to White Cloud Island

Forecast is more than 12 hours old.

Closest forecast is Wiarton Airport, 7.8 nm (14.4 km) SW. Retrieved 2019/11/18 20:00 UTC (13 hours ago):

TAF CYVV 181938Z 1820/1824 16005KT P6SM SCT050 BKN100 TEMPO 1820/1824 BKN020 OVC050 BECMG 1820/1822 VRB03KT RMK NXT FCST WILL BE ISSUED AT 191145Z